sensor_id;sensor_type;location;lat;lon;timestamp;P1;durP1;ratioP1;P2;durP2;ratioP2
10450;SDS011;5273;51.290;6.918;2023-09-12T00:00:08;4.55;;;3.47;;
10450;SDS011;5273;51.290;6.918;2023-09-12T00:02:36;3.92;;;3.15;;
10450;SDS011;5273;51.290;6.918;2023-09-12T00:05:03;4.40;;;3.88;;
10450;SDS011;5273;51.290;6.918;2023-09-12T00:07:30;4.13;;;3.72;;
10450;SDS011;5273;51.290;6.918;2023-09-12T00:09:57;5.28;;;3.92;;
10450;SDS011;5273;51.290;6.918;2023-09-12T00:12:26;6.30;;;4.13;;
10450;SDS011;5273;51.290;6.918;2023-09-12T00:14:53;4.32;;;3.88;;
10450;SDS011;5273;51.290;6.918;2023-09-12T00:17:21;5.80;;;4.30;;
10450;SDS011;5273;51.290;6.918;2023-09-12T00:19:48;4.63;;;4.22;;
10450;SDS011;5273;51.290;6.918;2023-09-12T00:22:14;6.63;;;4.22;;
10450;SDS011;5273;51.290;6.918;2023-09-12T00:24:41;9.85;;;4.70;;
10450;SDS011;5273;51.290;6.918;2023-09-12T00:27:08;4.90;;;4.45;;
10450;SDS011;5273;51.290;6.918;2023-09-12T00:29:36;7.43;;;4.88;;
10450;SDS011;5273;51.290;6.918;2023-09-12T00:32:03;4.95;;;4.43;;
10450;SDS011;5273;51.290;6.918;2023-09-12T00:34:31;6.88;;;5.40;;
10450;SDS011;5273;51.290;6.918;2023-09-12T00:36:58;6.07;;;4.40;;
10450;SDS011;5273;51.290;6.918;2023-09-12T00:39:24;6.63;;;4.70;;
10450;SDS011;5273;51.290;6.918;2023-09-12T00:41:51;6.22;;;4.10;;
10450;SDS011;5273;51.290;6.918;2023-09-12T00:44:18;5.55;;;4.95;;
10450;SDS011;5273;51.290;6.918;2023-09-12T00:46:46;6.78;;;4.47;;
10450;SDS011;5273;51.290;6.918;2023-09-12T00:49:16;6.45;;;4.40;;
10450;SDS011;5273;51.290;6.918;2023-09-12T00:51:44;4.82;;;4.40;;
10450;SDS011;5273;51.290;6.918;2023-09-12T00:54:12;7.45;;;5.13;;
10450;SDS011;5273;51.290;6.918;2023-09-12T00:56:38;8.52;;;4.82;;
10450;SDS011;5273;51.290;6.918;2023-09-12T00:59:05;7.00;;;5.93;;
10450;SDS011;5273;51.290;6.918;2023-09-12T01:01:33;6.70;;;5.28;;
10450;SDS011;5273;51.290;6.918;2023-09-12T01:04:02;10.68;;;6.32;;
10450;SDS011;5273;51.290;6.918;2023-09-12T01:06:29;8.65;;;6.97;;
10450;SDS011;5273;51.290;6.918;2023-09-12T01:08:59;7.05;;;6.35;;
10450;SDS011;5273;51.290;6.918;2023-09-12T01:11:26;7.85;;;6.82;;
10450;SDS011;5273;51.290;6.918;2023-09-12T01:13:53;9.57;;;6.93;;
10450;SDS011;5273;51.290;6.918;2023-09-12T01:16:20;10.30;;;7.07;;
10450;SDS011;5273;51.290;6.918;2023-09-12T01:18:47;8.50;;;7.00;;
10450;SDS011;5273;51.290;6.918;2023-09-12T01:27:31;12.13;;;8.30;;
10450;SDS011;5273;51.290;6.918;2023-09-12T01:30:02;11.23;;;8.45;;
10450;SDS011;5273;51.290;6.918;2023-09-12T01:32:32;9.65;;;7.20;;
10450;SDS011;5273;51.290;6.918;2023-09-12T01:35:00;11.05;;;8.38;;
10450;SDS011;5273;51.290;6.918;2023-09-12T01:37:28;12.23;;;9.10;;
10450;SDS011;5273;51.290;6.918;2023-09-12T01:39:55;11.57;;;9.60;;
10450;SDS011;5273;51.290;6.918;2023-09-12T01:42:22;10.57;;;9.48;;
10450;SDS011;5273;51.290;6.918;2023-09-12T01:44:54;10.20;;;8.88;;
10450;SDS011;5273;51.290;6.918;2023-09-12T01:47:22;10.77;;;9.55;;
10450;SDS011;5273;51.290;6.918;2023-09-12T01:49:51;14.93;;;10.63;;
10450;SDS011;5273;51.290;6.918;2023-09-12T01:52:21;13.02;;;10.13;;
10450;SDS011;5273;51.290;6.918;2023-09-12T01:54:48;14.27;;;11.38;;
10450;SDS011;5273;51.290;6.918;2023-09-12T01:57:16;14.77;;;10.40;;
10450;SDS011;5273;51.290;6.918;2023-09-12T01:59:45;13.27;;;11.55;;
10450;SDS011;5273;51.290;6.918;2023-09-12T02:02:14;17.50;;;12.80;;
10450;SDS011;5273;51.290;6.918;2023-09-12T02:04:41;18.02;;;12.93;;
10450;SDS011;5273;51.290;6.918;2023-09-12T02:07:13;18.10;;;12.68;;
10450;SDS011;5273;51.290;6.918;2023-09-12T02:09:40;20.63;;;15.90;;
10450;SDS011;5273;51.290;6.918;2023-09-12T02:12:07;23.25;;;15.43;;
10450;SDS011;5273;51.290;6.918;2023-09-12T02:14:34;20.23;;;16.10;;
10450;SDS011;5273;51.290;6.918;2023-09-12T02:17:00;24.42;;;16.67;;
10450;SDS011;5273;51.290;6.918;2023-09-12T02:19:29;20.30;;;15.05;;
10450;SDS011;5273;51.290;6.918;2023-09-12T02:21:55;20.42;;;15.73;;
10450;SDS011;5273;51.290;6.918;2023-09-12T02:24:22;19.58;;;16.10;;
10450;SDS011;5273;51.290;6.918;2023-09-12T02:26:49;19.92;;;15.90;;
10450;SDS011;5273;51.290;6.918;2023-09-12T02:29:16;18.77;;;15.07;;
10450;SDS011;5273;51.290;6.918;2023-09-12T02:31:43;22.27;;;16.17;;
10450;SDS011;5273;51.290;6.918;2023-09-12T02:34:10;19.38;;;15.77;;
10450;SDS011;5273;51.290;6.918;2023-09-12T02:36:38;21.73;;;15.32;;
10450;SDS011;5273;51.290;6.918;2023-09-12T02:39:05;19.08;;;15.70;;
10450;SDS011;5273;51.290;6.918;2023-09-12T02:41:31;21.67;;;16.27;;
10450;SDS011;5273;51.290;6.918;2023-09-12T02:43:59;22.75;;;16.83;;
10450;SDS011;5273;51.290;6.918;2023-09-12T02:46:26;23.00;;;15.48;;
10450;SDS011;5273;51.290;6.918;2023-09-12T02:48:52;22.27;;;16.88;;
10450;SDS011;5273;51.290;6.918;2023-09-12T02:51:19;22.65;;;16.30;;
10450;SDS011;5273;51.290;6.918;2023-09-12T02:53:47;20.48;;;15.63;;
10450;SDS011;5273;51.290;6.918;2023-09-12T02:56:14;18.63;;;14.65;;
10450;SDS011;5273;51.290;6.918;2023-09-12T02:58:41;16.95;;;13.60;;
10450;SDS011;5273;51.290;6.918;2023-09-12T03:01:13;16.50;;;14.57;;
10450;SDS011;5273;51.290;6.918;2023-09-12T03:03:41;18.35;;;14.25;;
10450;SDS011;5273;51.290;6.918;2023-09-12T03:06:11;15.80;;;13.45;;
10450;SDS011;5273;51.290;6.918;2023-09-12T03:08:39;17.15;;;13.95;;
10450;SDS011;5273;51.290;6.918;2023-09-12T03:11:07;20.15;;;13.60;;
10450;SDS011;5273;51.290;6.918;2023-09-12T03:13:36;14.32;;;12.30;;
10450;SDS011;5273;51.290;6.918;2023-09-12T03:16:03;16.10;;;12.13;;
10450;SDS011;5273;51.290;6.918;2023-09-12T03:18:30;17.02;;;13.20;;
10450;SDS011;5273;51.290;6.918;2023-09-12T03:20:57;15.20;;;12.07;;
10450;SDS011;5273;51.290;6.918;2023-09-12T03:23:24;17.50;;;11.55;;
10450;SDS011;5273;51.290;6.918;2023-09-12T03:25:50;15.98;;;12.20;;
10450;SDS011;5273;51.290;6.918;2023-09-12T03:28:19;19.10;;;13.43;;
10450;SDS011;5273;51.290;6.918;2023-09-12T03:30:46;16.80;;;12.05;;
10450;SDS011;5273;51.290;6.918;2023-09-12T03:33:13;16.75;;;11.98;;
10450;SDS011;5273;51.290;6.918;2023-09-12T03:35:42;14.52;;;11.77;;
10450;SDS011;5273;51.290;6.918;2023-09-12T03:38:09;16.70;;;12.63;;
10450;SDS011;5273;51.290;6.918;2023-09-12T03:40:36;16.10;;;12.15;;
10450;SDS011;5273;51.290;6.918;2023-09-12T03:43:03;13.00;;;11.13;;
10450;SDS011;5273;51.290;6.918;2023-09-12T03:45:31;13.95;;;11.48;;
10450;SDS011;5273;51.290;6.918;2023-09-12T03:47:58;15.48;;;12.00;;
10450;SDS011;5273;51.290;6.918;2023-09-12T03:50:25;12.70;;;10.88;;
10450;SDS011;5273;51.290;6.918;2023-09-12T03:52:52;14.88;;;11.15;;
10450;SDS011;5273;51.290;6.918;2023-09-12T03:55:19;14.63;;;11.15;;
10450;SDS011;5273;51.290;6.918;2023-09-12T03:57:45;15.10;;;10.63;;
10450;SDS011;5273;51.290;6.918;2023-09-12T04:00:13;14.57;;;9.93;;
10450;SDS011;5273;51.290;6.918;2023-09-12T04:02:41;14.13;;;10.40;;
10450;SDS011;5273;51.290;6.918;2023-09-12T04:05:08;13.85;;;10.32;;
10450;SDS011;5273;51.290;6.918;2023-09-12T04:07:35;12.57;;;9.82;;
10450;SDS011;5273;51.290;6.918;2023-09-12T04:10:02;12.10;;;9.48;;
10450;SDS011;5273;51.290;6.918;2023-09-12T04:12:29;12.60;;;9.55;;
10450;SDS011;5273;51.290;6.918;2023-09-12T04:14:56;12.25;;;10.38;;
10450;SDS011;5273;51.290;6.918;2023-09-12T04:17:23;14.27;;;9.77;;
10450;SDS011;5273;51.290;6.918;2023-09-12T04:19:51;10.13;;;9.00;;
10450;SDS011;5273;51.290;6.918;2023-09-12T04:22:18;11.63;;;9.43;;
10450;SDS011;5273;51.290;6.918;2023-09-12T04:24:44;11.63;;;9.40;;
10450;SDS011;5273;51.290;6.918;2023-09-12T04:27:11;11.38;;;9.05;;
10450;SDS011;5273;51.290;6.918;2023-09-12T04:29:39;11.48;;;9.07;;
10450;SDS011;5273;51.290;6.918;2023-09-12T04:32:05;11.27;;;9.20;;
10450;SDS011;5273;51.290;6.918;2023-09-12T04:34:32;10.32;;;8.60;;
10450;SDS011;5273;51.290;6.918;2023-09-12T04:37:01;10.45;;;8.45;;
10450;SDS011;5273;51.290;6.918;2023-09-12T04:39:30;10.27;;;8.20;;
10450;SDS011;5273;51.290;6.918;2023-09-12T04:41:57;9.65;;;8.68;;
10450;SDS011;5273;51.290;6.918;2023-09-12T04:44:24;13.30;;;8.38;;
10450;SDS011;5273;51.290;6.918;2023-09-12T04:46:50;10.73;;;8.30;;
10450;SDS011;5273;51.290;6.918;2023-09-12T04:49:17;10.50;;;7.97;;
10450;SDS011;5273;51.290;6.918;2023-09-12T04:51:44;9.45;;;8.48;;
10450;SDS011;5273;51.290;6.918;2023-09-12T04:54:12;9.10;;;7.75;;
10450;SDS011;5273;51.290;6.918;2023-09-12T04:56:39;8.32;;;7.53;;
10450;SDS011;5273;51.290;6.918;2023-09-12T04:59:06;9.15;;;6.78;;
10450;SDS011;5273;51.290;6.918;2023-09-12T05:01:32;8.95;;;7.22;;
10450;SDS011;5273;51.290;6.918;2023-09-12T05:03:59;9.00;;;7.20;;
10450;SDS011;5273;51.290;6.918;2023-09-12T05:06:26;13.68;;;7.90;;
10450;SDS011;5273;51.290;6.918;2023-09-12T05:08:53;14.07;;;9.90;;
10450;SDS011;5273;51.290;6.918;2023-09-12T05:11:21;16.00;;;8.02;;
10450;SDS011;5273;51.290;6.918;2023-09-12T05:13:49;9.10;;;6.95;;
10450;SDS011;5273;51.290;6.918;2023-09-12T05:16:16;11.23;;;7.40;;
10450;SDS011;5273;51.290;6.918;2023-09-12T05:18:42;10.25;;;8.57;;
10450;SDS011;5273;51.290;6.918;2023-09-12T05:21:09;10.32;;;7.78;;
10450;SDS011;5273;51.290;6.918;2023-09-12T05:23:36;10.93;;;7.78;;
10450;SDS011;5273;51.290;6.918;2023-09-12T05:26:03;11.80;;;8.45;;
10450;SDS011;5273;51.290;6.918;2023-09-12T05:28:31;13.68;;;8.57;;
10450;SDS011;5273;51.290;6.918;2023-09-12T05:31:00;12.30;;;8.00;;
10450;SDS011;5273;51.290;6.918;2023-09-12T05:33:27;12.05;;;9.07;;
10450;SDS011;5273;51.290;6.918;2023-09-12T05:35:54;11.23;;;8.52;;
10450;SDS011;5273;51.290;6.918;2023-09-12T05:38:21;10.40;;;8.20;;
10450;SDS011;5273;51.290;6.918;2023-09-12T05:40:48;12.02;;;8.50;;
10450;SDS011;5273;51.290;6.918;2023-09-12T05:43:15;12.55;;;8.50;;
10450;SDS011;5273;51.290;6.918;2023-09-12T05:45:43;10.70;;;8.23;;
10450;SDS011;5273;51.290;6.918;2023-09-12T05:48:10;10.07;;;7.47;;
10450;SDS011;5273;51.290;6.918;2023-09-12T05:50:37;8.05;;;6.72;;
10450;SDS011;5273;51.290;6.918;2023-09-12T05:53:04;11.23;;;7.75;;
10450;SDS011;5273;51.290;6.918;2023-09-12T05:55:31;10.05;;;7.45;;
10450;SDS011;5273;51.290;6.918;2023-09-12T05:57:58;11.13;;;8.43;;
10450;SDS011;5273;51.290;6.918;2023-09-12T06:00:24;15.57;;;7.28;;
10450;SDS011;5273;51.290;6.918;2023-09-12T06:02:53;8.35;;;7.28;;
10450;SDS011;5273;51.290;6.918;2023-09-12T06:05:20;9.70;;;8.48;;
10450;SDS011;5273;51.290;6.918;2023-09-12T06:07:47;19.85;;;14.85;;
10450;SDS011;5273;51.290;6.918;2023-09-12T06:10:13;24.35;;;18.30;;
10450;SDS011;5273;51.290;6.918;2023-09-12T06:12:40;26.80;;;21.38;;
10450;SDS011;5273;51.290;6.918;2023-09-12T06:15:07;30.55;;;24.38;;
10450;SDS011;5273;51.290;6.918;2023-09-12T06:17:34;22.00;;;17.88;;
10450;SDS011;5273;51.290;6.918;2023-09-12T06:20:02;22.15;;;18.65;;
10450;SDS011;5273;51.290;6.918;2023-09-12T06:22:31;20.60;;;16.98;;
10450;SDS011;5273;51.290;6.918;2023-09-12T06:24:58;21.75;;;16.45;;
10450;SDS011;5273;51.290;6.918;2023-09-12T06:27:25;21.40;;;14.82;;
10450;SDS011;5273;51.290;6.918;2023-09-12T06:29:52;15.85;;;13.35;;
10450;SDS011;5273;51.290;6.918;2023-09-12T06:32:19;17.75;;;12.23;;
10450;SDS011;5273;51.290;6.918;2023-09-12T06:34:46;13.40;;;9.23;;
10450;SDS011;5273;51.290;6.918;2023-09-12T06:37:14;10.68;;;7.88;;
10450;SDS011;5273;51.290;6.918;2023-09-12T06:39:41;11.20;;;6.80;;
10450;SDS011;5273;51.290;6.918;2023-09-12T06:42:08;9.70;;;6.53;;
10450;SDS011;5273;51.290;6.918;2023-09-12T06:44:35;7.90;;;6.00;;
10450;SDS011;5273;51.290;6.918;2023-09-12T06:47:03;9.05;;;6.03;;
10450;SDS011;5273;51.290;6.918;2023-09-12T06:49:30;7.70;;;5.40;;
10450;SDS011;5273;51.290;6.918;2023-09-12T06:51:58;9.85;;;5.68;;
10450;SDS011;5273;51.290;6.918;2023-09-12T06:54:26;11.60;;;7.07;;
10450;SDS011;5273;51.290;6.918;2023-09-12T06:56:53;6.60;;;5.60;;
10450;SDS011;5273;51.290;6.918;2023-09-12T06:59:20;6.50;;;5.35;;
10450;SDS011;5273;51.290;6.918;2023-09-12T07:01:46;9.05;;;5.88;;
10450;SDS011;5273;51.290;6.918;2023-09-12T07:04:13;9.02;;;5.68;;
10450;SDS011;5273;51.290;6.918;2023-09-12T07:06:40;7.72;;;5.93;;
10450;SDS011;5273;51.290;6.918;2023-09-12T07:09:07;8.45;;;6.82;;
10450;SDS011;5273;51.290;6.918;2023-09-12T07:11:38;7.13;;;6.43;;
10450;SDS011;5273;51.290;6.918;2023-09-12T07:14:05;7.40;;;6.35;;
10450;SDS011;5273;51.290;6.918;2023-09-12T07:16:32;7.38;;;6.68;;
10450;SDS011;5273;51.290;6.918;2023-09-12T07:18:58;6.85;;;6.15;;
10450;SDS011;5273;51.290;6.918;2023-09-12T07:21:25;8.20;;;6.15;;
10450;SDS011;5273;51.290;6.918;2023-09-12T07:23:53;6.03;;;5.50;;
10450;SDS011;5273;51.290;6.918;2023-09-12T07:26:20;6.45;;;5.82;;
10450;SDS011;5273;51.290;6.918;2023-09-12T07:28:48;6.90;;;5.50;;
10450;SDS011;5273;51.290;6.918;2023-09-12T07:31:16;4.90;;;4.40;;
10450;SDS011;5273;51.290;6.918;2023-09-12T07:33:43;5.85;;;5.32;;
10450;SDS011;5273;51.290;6.918;2023-09-12T07:36:10;7.13;;;4.63;;
10450;SDS011;5273;51.290;6.918;2023-09-12T07:38:37;5.68;;;5.07;;
10450;SDS011;5273;51.290;6.918;2023-09-12T07:41:04;5.60;;;3.67;;
10450;SDS011;5273;51.290;6.918;2023-09-12T07:43:30;8.88;;;4.50;;
10450;SDS011;5273;51.290;6.918;2023-09-12T07:45:59;4.45;;;4.05;;
10450;SDS011;5273;51.290;6.918;2023-09-12T07:48:25;4.65;;;4.25;;
10450;SDS011;5273;51.290;6.918;2023-09-12T07:50:53;3.78;;;3.42;;
10450;SDS011;5273;51.290;6.918;2023-09-12T07:53:20;4.30;;;3.90;;
10450;SDS011;5273;51.290;6.918;2023-09-12T07:55:47;3.85;;;3.53;;
10450;SDS011;5273;51.290;6.918;2023-09-12T07:58:14;3.95;;;3.55;;
10450;SDS011;5273;51.290;6.918;2023-09-12T08:00:43;4.45;;;3.47;;
10450;SDS011;5273;51.290;6.918;2023-09-12T08:03:12;3.72;;;3.38;;
10450;SDS011;5273;51.290;6.918;2023-09-12T08:05:38;4.13;;;3.72;;
10450;SDS011;5273;51.290;6.918;2023-09-12T08:08:05;3.60;;;3.30;;
10450;SDS011;5273;51.290;6.918;2023-09-12T08:10:32;4.10;;;3.70;;
10450;SDS011;5273;51.290;6.918;2023-09-12T08:12:59;4.65;;;3.58;;
10450;SDS011;5273;51.290;6.918;2023-09-12T08:15:26;4.50;;;3.63;;
10450;SDS011;5273;51.290;6.918;2023-09-12T08:17:53;4.95;;;3.70;;
10450;SDS011;5273;51.290;6.918;2023-09-12T08:20:22;3.55;;;3.25;;
10450;SDS011;5273;51.290;6.918;2023-09-12T08:22:49;4.22;;;3.15;;
10450;SDS011;5273;51.290;6.918;2023-09-12T08:25:16;3.45;;;3.15;;
10450;SDS011;5273;51.290;6.918;2023-09-12T08:27:43;3.15;;;2.85;;
10450;SDS011;5273;51.290;6.918;2023-09-12T08:30:10;3.38;;;2.83;;
10450;SDS011;5273;51.290;6.918;2023-09-12T08:32:38;3.42;;;3.00;;
10450;SDS011;5273;51.290;6.918;2023-09-12T08:35:08;3.40;;;2.90;;
10450;SDS011;5273;51.290;6.918;2023-09-12T08:37:37;3.13;;;2.90;;
10450;SDS011;5273;51.290;6.918;2023-09-12T08:40:05;2.97;;;2.70;;
10450;SDS011;5273;51.290;6.918;2023-09-12T08:42:34;3.85;;;2.80;;
10450;SDS011;5273;51.290;6.918;2023-09-12T08:45:06;4.50;;;2.30;;
10450;SDS011;5273;51.290;6.918;2023-09-12T08:47:37;3.45;;;2.40;;
10450;SDS011;5273;51.290;6.918;2023-09-12T08:50:07;3.38;;;2.10;;
10450;SDS011;5273;51.290;6.918;2023-09-12T08:52:38;2.38;;;2.00;;
10450;SDS011;5273;51.290;6.918;2023-09-12T08:55:05;2.55;;;2.10;;
10450;SDS011;5273;51.290;6.918;2023-09-12T08:57:32;2.30;;;2.10;;
10450;SDS011;5273;51.290;6.918;2023-09-12T09:00:01;2.47;;;2.20;;
10450;SDS011;5273;51.290;6.918;2023-09-12T09:02:31;2.10;;;2.00;;
10450;SDS011;5273;51.290;6.918;2023-09-12T09:04:58;2.22;;;1.90;;
10450;SDS011;5273;51.290;6.918;2023-09-12T09:07:27;6.97;;;1.98;;
10450;SDS011;5273;51.290;6.918;2023-09-12T09:09:56;2.92;;;2.28;;
10450;SDS011;5273;51.290;6.918;2023-09-12T09:12:23;2.03;;;1.92;;
10450;SDS011;5273;51.290;6.918;2023-09-12T09:14:50;2.53;;;2.33;;
10450;SDS011;5273;51.290;6.918;2023-09-12T09:17:17;2.58;;;2.33;;
10450;SDS011;5273;51.290;6.918;2023-09-12T09:19:45;2.90;;;2.70;;
10450;SDS011;5273;51.290;6.918;2023-09-12T09:22:13;2.80;;;2.60;;
10450;SDS011;5273;51.290;6.918;2023-09-12T09:24:39;2.50;;;2.30;;
10450;SDS011;5273;51.290;6.918;2023-09-12T09:27:08;2.60;;;2.40;;
10450;SDS011;5273;51.290;6.918;2023-09-12T09:29:45;3.15;;;2.60;;
10450;SDS011;5273;51.290;6.918;2023-09-12T09:32:16;3.67;;;2.10;;
10450;SDS011;5273;51.290;6.918;2023-09-12T09:34:44;2.10;;;1.90;;
10450;SDS011;5273;51.290;6.918;2023-09-12T09:37:11;2.70;;;1.77;;
10450;SDS011;5273;51.290;6.918;2023-09-12T09:39:39;2.20;;;1.98;;
10450;SDS011;5273;51.290;6.918;2023-09-12T09:42:11;2.72;;;1.55;;
10450;SDS011;5273;51.290;6.918;2023-09-12T09:44:38;1.73;;;1.63;;
10450;SDS011;5273;51.290;6.918;2023-09-12T09:47:05;3.38;;;1.83;;
10450;SDS011;5273;51.290;6.918;2023-09-12T09:49:32;1.88;;;1.60;;
10450;SDS011;5273;51.290;6.918;2023-09-12T09:51:59;1.95;;;1.85;;
10450;SDS011;5273;51.290;6.918;2023-09-12T09:54:30;2.10;;;1.90;;
10450;SDS011;5273;51.290;6.918;2023-09-12T09:56:57;2.20;;;2.00;;
10450;SDS011;5273;51.290;6.918;2023-09-12T09:59:25;2.30;;;1.63;;
10450;SDS011;5273;51.290;6.918;2023-09-12T10:01:54;3.30;;;1.60;;
10450;SDS011;5273;51.290;6.918;2023-09-12T10:04:22;2.20;;;1.75;;
10450;SDS011;5273;51.290;6.918;2023-09-12T10:06:49;2.30;;;2.10;;
10450;SDS011;5273;51.290;6.918;2023-09-12T10:09:18;4.35;;;2.33;;
10450;SDS011;5273;51.290;6.918;2023-09-12T10:11:47;3.63;;;2.30;;
10450;SDS011;5273;51.290;6.918;2023-09-12T10:14:16;3.63;;;2.20;;
10450;SDS011;5273;51.290;6.918;2023-09-12T10:16:47;2.50;;;2.30;;
10450;SDS011;5273;51.290;6.918;2023-09-12T10:19:17;2.33;;;2.00;;
10450;SDS011;5273;51.290;6.918;2023-09-12T10:21:46;3.08;;;1.88;;
10450;SDS011;5273;51.290;6.918;2023-09-12T10:24:15;2.85;;;2.15;;
10450;SDS011;5273;51.290;6.918;2023-09-12T10:26:42;2.28;;;2.08;;
10450;SDS011;5273;51.290;6.918;2023-09-12T10:29:10;2.25;;;2.05;;
10450;SDS011;5273;51.290;6.918;2023-09-12T10:31:40;1.90;;;1.80;;
10450;SDS011;5273;51.290;6.918;2023-09-12T10:34:08;2.05;;;1.73;;
10450;SDS011;5273;51.290;6.918;2023-09-12T10:36:38;2.42;;;1.90;;
10450;SDS011;5273;51.290;6.918;2023-09-12T10:39:06;1.85;;;1.67;;
10450;SDS011;5273;51.290;6.918;2023-09-12T10:41:36;1.70;;;1.60;;
10450;SDS011;5273;51.290;6.918;2023-09-12T10:44:06;1.73;;;1.63;;
10450;SDS011;5273;51.290;6.918;2023-09-12T10:46:36;1.65;;;1.55;;
10450;SDS011;5273;51.290;6.918;2023-09-12T10:49:06;1.83;;;1.70;;
10450;SDS011;5273;51.290;6.918;2023-09-12T10:51:36;2.22;;;2.00;;
10450;SDS011;5273;51.290;6.918;2023-09-12T10:54:04;1.83;;;1.73;;
10450;SDS011;5273;51.290;6.918;2023-09-12T10:56:32;1.80;;;1.70;;
10450;SDS011;5273;51.290;6.918;2023-09-12T10:59:09;2.05;;;1.90;;
10450;SDS011;5273;51.290;6.918;2023-09-12T11:01:38;2.20;;;2.00;;
10450;SDS011;5273;51.290;6.918;2023-09-12T11:10:15;1.92;;;1.83;;
10450;SDS011;5273;51.290;6.918;2023-09-12T11:12:46;2.22;;;1.98;;
10450;SDS011;5273;51.290;6.918;2023-09-12T11:15:14;2.17;;;1.90;;
10450;SDS011;5273;51.290;6.918;2023-09-12T11:17:41;1.80;;;1.70;;
10450;SDS011;5273;51.290;6.918;2023-09-12T11:20:09;1.80;;;1.70;;
10450;SDS011;5273;51.290;6.918;2023-09-12T11:22:38;1.90;;;1.80;;
10450;SDS011;5273;51.290;6.918;2023-09-12T11:25:15;2.03;;;1.83;;
10450;SDS011;5273;51.290;6.918;2023-09-12T11:27:44;2.60;;;1.95;;
10450;SDS011;5273;51.290;6.918;2023-09-12T11:30:27;2.00;;;1.90;;
10450;SDS011;5273;51.290;6.918;2023-09-12T11:32:56;2.00;;;1.90;;
10450;SDS011;5273;51.290;6.918;2023-09-12T11:35:23;2.75;;;2.20;;
10450;SDS011;5273;51.290;6.918;2023-09-12T11:37:53;2.47;;;2.25;;
10450;SDS011;5273;51.290;6.918;2023-09-12T11:40:22;2.65;;;2.45;;
10450;SDS011;5273;51.290;6.918;2023-09-12T11:42:51;2.25;;;2.05;;
10450;SDS011;5273;51.290;6.918;2023-09-12T11:45:19;2.42;;;2.22;;
10450;SDS011;5273;51.290;6.918;2023-09-12T11:47:47;2.63;;;2.30;;
10450;SDS011;5273;51.290;6.918;2023-09-12T11:50:27;2.40;;;2.20;;
10450;SDS011;5273;51.290;6.918;2023-09-12T11:53:00;3.35;;;2.35;;
10450;SDS011;5273;51.290;6.918;2023-09-12T11:55:30;2.97;;;2.25;;
10450;SDS011;5273;51.290;6.918;2023-09-12T11:57:57;2.55;;;2.35;;
10450;SDS011;5273;51.290;6.918;2023-09-12T12:00:24;3.17;;;2.53;;
10450;SDS011;5273;51.290;6.918;2023-09-12T12:02:52;2.70;;;2.50;;
10450;SDS011;5273;51.290;6.918;2023-09-12T12:05:19;2.95;;;2.35;;
10450;SDS011;5273;51.290;6.918;2023-09-12T12:07:46;3.05;;;2.72;;
10450;SDS011;5273;51.290;6.918;2023-09-12T12:10:15;3.97;;;2.28;;
10450;SDS011;5273;51.290;6.918;2023-09-12T12:12:43;4.30;;;3.00;;
10450;SDS011;5273;51.290;6.918;2023-09-12T12:15:12;2.92;;;2.67;;
10450;SDS011;5273;51.290;6.918;2023-09-12T12:17:40;3.45;;;2.78;;
10450;SDS011;5273;51.290;6.918;2023-09-12T12:20:07;2.70;;;2.45;;
10450;SDS011;5273;51.290;6.918;2023-09-12T12:22:36;4.65;;;3.13;;
10450;SDS011;5273;51.290;6.918;2023-09-12T12:25:06;2.95;;;2.65;;
10450;SDS011;5273;51.290;6.918;2023-09-12T12:27:36;4.90;;;2.70;;
10450;SDS011;5273;51.290;6.918;2023-09-12T12:30:04;4.15;;;3.03;;
10450;SDS011;5273;51.290;6.918;2023-09-12T12:32:32;4.65;;;3.33;;
10450;SDS011;5273;51.290;6.918;2023-09-12T12:34:59;4.18;;;3.40;;
10450;SDS011;5273;51.290;6.918;2023-09-12T12:37:28;3.20;;;3.00;;
10450;SDS011;5273;51.290;6.918;2023-09-12T12:39:56;3.35;;;2.83;;
10450;SDS011;5273;51.290;6.918;2023-09-12T12:42:23;4.00;;;3.58;;
10450;SDS011;5273;51.290;6.918;2023-09-12T12:44:53;3.35;;;3.00;;
10450;SDS011;5273;51.290;6.918;2023-09-12T12:47:20;3.88;;;2.75;;
10450;SDS011;5273;51.290;6.918;2023-09-12T12:49:50;4.43;;;3.17;;
10450;SDS011;5273;51.290;6.918;2023-09-12T12:52:21;3.58;;;3.28;;
10450;SDS011;5273;51.290;6.918;2023-09-12T12:54:49;4.07;;;3.17;;
10450;SDS011;5273;51.290;6.918;2023-09-12T12:57:19;3.72;;;3.42;;
10450;SDS011;5273;51.290;6.918;2023-09-12T12:59:46;3.67;;;3.38;;
10450;SDS011;5273;51.290;6.918;2023-09-12T13:02:15;3.83;;;3.53;;
10450;SDS011;5273;51.290;6.918;2023-09-12T13:04:42;4.25;;;3.20;;
10450;SDS011;5273;51.290;6.918;2023-09-12T13:07:09;5.95;;;3.50;;
10450;SDS011;5273;51.290;6.918;2023-09-12T13:09:36;6.75;;;3.90;;
10450;SDS011;5273;51.290;6.918;2023-09-12T13:12:04;3.97;;;3.00;;
10450;SDS011;5273;51.290;6.918;2023-09-12T13:14:33;3.90;;;3.17;;
10450;SDS011;5273;51.290;6.918;2023-09-12T13:17:00;4.82;;;3.33;;
10450;SDS011;5273;51.290;6.918;2023-09-12T13:19:29;4.65;;;3.30;;
10450;SDS011;5273;51.290;6.918;2023-09-12T13:21:56;3.67;;;3.38;;
10450;SDS011;5273;51.290;6.918;2023-09-12T13:24:23;3.95;;;3.55;;
10450;SDS011;5273;51.290;6.918;2023-09-12T13:26:51;3.92;;;3.40;;
10450;SDS011;5273;51.290;6.918;2023-09-12T13:29:18;4.28;;;3.83;;
10450;SDS011;5273;51.290;6.918;2023-09-12T13:31:45;5.68;;;3.30;;
10450;SDS011;5273;51.290;6.918;2023-09-12T13:34:12;4.32;;;3.13;;
10450;SDS011;5273;51.290;6.918;2023-09-12T13:36:40;4.63;;;3.47;;
10450;SDS011;5273;51.290;6.918;2023-09-12T13:39:07;4.25;;;3.33;;
10450;SDS011;5273;51.290;6.918;2023-09-12T13:41:33;4.55;;;3.15;;
10450;SDS011;5273;51.290;6.918;2023-09-12T13:44:01;4.75;;;3.60;;
10450;SDS011;5273;51.290;6.918;2023-09-12T13:46:28;4.82;;;3.55;;
10450;SDS011;5273;51.290;6.918;2023-09-12T13:48:55;4.00;;;3.60;;
10450;SDS011;5273;51.290;6.918;2023-09-12T13:51:25;3.58;;;3.28;;
10450;SDS011;5273;51.290;6.918;2023-09-12T13:53:53;5.53;;;3.97;;
10450;SDS011;5273;51.290;6.918;2023-09-12T13:56:20;4.22;;;3.38;;
10450;SDS011;5273;51.290;6.918;2023-09-12T13:58:47;3.92;;;3.60;;
10450;SDS011;5273;51.290;6.918;2023-09-12T14:01:14;3.92;;;3.55;;
10450;SDS011;5273;51.290;6.918;2023-09-12T14:03:43;4.13;;;3.72;;
10450;SDS011;5273;51.290;6.918;2023-09-12T14:06:10;4.22;;;3.83;;
10450;SDS011;5273;51.290;6.918;2023-09-12T14:08:36;4.50;;;3.55;;
10450;SDS011;5273;51.290;6.918;2023-09-12T14:11:05;3.75;;;3.45;;
10450;SDS011;5273;51.290;6.918;2023-09-12T14:13:31;4.25;;;3.40;;
10450;SDS011;5273;51.290;6.918;2023-09-12T14:15:58;3.90;;;3.60;;
10450;SDS011;5273;51.290;6.918;2023-09-12T14:18:25;4.32;;;3.92;;
10450;SDS011;5273;51.290;6.918;2023-09-12T14:20:52;4.85;;;4.03;;
10450;SDS011;5273;51.290;6.918;2023-09-12T14:23:19;5.13;;;4.13;;
10450;SDS011;5273;51.290;6.918;2023-09-12T14:25:46;4.07;;;3.78;;
10450;SDS011;5273;51.290;6.918;2023-09-12T14:28:15;4.60;;;4.20;;
10450;SDS011;5273;51.290;6.918;2023-09-12T14:30:41;4.38;;;4.03;;
10450;SDS011;5273;51.290;6.918;2023-09-12T14:33:10;6.55;;;3.70;;
10450;SDS011;5273;51.290;6.918;2023-09-12T14:35:37;5.28;;;3.85;;
10450;SDS011;5273;51.290;6.918;2023-09-12T14:38:04;4.93;;;4.03;;
10450;SDS011;5273;51.290;6.918;2023-09-12T14:40:31;4.05;;;3.65;;
10450;SDS011;5273;51.290;6.918;2023-09-12T14:42:57;5.18;;;4.20;;
10450;SDS011;5273;51.290;6.918;2023-09-12T14:45:27;5.85;;;4.43;;
10450;SDS011;5273;51.290;6.918;2023-09-12T14:47:54;3.88;;;3.58;;
10450;SDS011;5273;51.290;6.918;2023-09-12T14:50:21;4.50;;;4.10;;
10450;SDS011;5273;51.290;6.918;2023-09-12T14:52:49;4.05;;;3.65;;
10450;SDS011;5273;51.290;6.918;2023-09-12T14:55:16;4.40;;;4.00;;
10450;SDS011;5273;51.290;6.918;2023-09-12T14:57:42;4.40;;;4.00;;
10450;SDS011;5273;51.290;6.918;2023-09-12T15:00:10;4.28;;;3.88;;
10450;SDS011;5273;51.290;6.918;2023-09-12T15:02:39;4.50;;;4.05;;
10450;SDS011;5273;51.290;6.918;2023-09-12T15:05:07;4.68;;;4.00;;
10450;SDS011;5273;51.290;6.918;2023-09-12T15:07:34;4.82;;;4.43;;
10450;SDS011;5273;51.290;6.918;2023-09-12T15:10:02;5.30;;;4.80;;